Time;durP1;ratioP1;P1;durP2;ratioP2;P2;SDS_P1;SDS_P2;PMS_P1;PMS_P2;Temp;Humidity;BMP_temperature;BMP_pressure;BME280_temperature;BME280_humidity;BME280_pressure;Samples;Min_cycle;Max_cycle;Signal;HPM_P1;HPM_P2
2022/03/24 12:14:08;;;;;;;12.55;7.55;;;8.40;59.40;;;;;;1972864;73;26321;-55
2022/03/24 12:16:39;;;;;;;17.95;7.72;;;8.40;59.60;;;;;;1948457;73;21019;-55
2022/03/24 12:19:27;;;;;;;13.25;6.67;;;8.50;59.60;;;;;;1948574;73;21088;-56
2022/03/24 12:21:58;;;;;;;15.43;7.05;;;8.40;59.60;;;;;;1948234;73;21078;-56
2022/03/24 12:24:38;;;;;;;14.53;8.70;;;8.40;59.90;;;;;;1948516;73;21078;-55
2022/03/24 12:27:07;;;;;;;14.53;7.72;;;8.30;60.00;;;;;;1948110;73;21560;-52
2022/03/24 12:29:36;;;;;;;17.23;9.23;;;;;;;;;;1948625;73;21053;-56
2022/03/24 12:32:13;;;;;;;13.58;7.72;;;8.20;60.00;;;;;;1948331;73;21019;-56
2022/03/24 12:34:47;;;;;;;6.47;5.22;;;8.20;60.00;;;;;;1948392;73;21149;-53
2022/03/24 12:37:56;;;;;;;20.77;8.93;;;9.00;60.50;;;;;;1973117;72;27410;-58
2022/03/24 12:40:26;;;;;;;19.05;8.63;;;8.20;60.60;;;;;;1948224;73;21167;-56
2022/03/24 12:47:02;;;;;;;14.33;8.30;;;8.10;60.30;;;;;;1972901;73;27808;-56
2022/03/24 12:52:48;;;;;;;16.90;7.72;;;8.10;60.20;;;;;;1958451;72;26220;-56
2022/03/24 12:55:23;;;;;;;8.40;5.85;;;8.10;60.90;;;;;;1917829;75;21022;-57
2022/03/24 12:57:58;;;;;;;;;;;8.10;60.80;;;;;;1918202;73;21164;-55
2022/03/24 13:00:30;;;;;;;19.40;8.67;;;8.00;61.10;;;;;;1918084;75;20105;-57
2022/03/24 13:03:04;;;;;;;6.17;5.25;;;8.00;61.30;;;;;;1917698;75;21307;-57
2022/03/24 13:05:34;;;;;;;11.28;7.35;;;8.00;61.30;;;;;;1917703;75;20987;-55
2022/03/24 13:08:06;;;;;;;12.68;7.30;;;8.00;61.30;;;;;;1917661;75;21104;-56
2022/03/24 13:10:36;;;;;;;11.33;7.20;;;8.00;62.00;;;;;;1917671;75;21062;-55
2022/03/24 13:13:27;;;;;;;11.88;7.33;;;8.00;62.00;;;;;;1958299;73;26299;-54
2022/03/24 13:17:13;;;;;;;13.03;6.53;;;8.10;62.40;;;;;;1958240;73;26783;-55
2022/03/24 13:19:42;;;;;;;;;;;8.00;62.10;;;;;;1920395;75;21470;-57
2022/03/24 13:22:23;;;;;;;13.85;7.15;;;8.00;62.10;;;;;;1917889;75;20183;-57
2022/03/24 13:25:01;;;;;;;8.75;5.03;;;8.00;61.70;;;;;;1917620;75;21026;-56
2022/03/24 13:27:32;;;;;;;16.62;7.33;;;7.90;61.60;;;;;;1917664;75;21496;-56
2022/03/24 13:30:10;;;;;;;11.53;6.12;;;7.90;61.40;;;;;;1917567;75;21027;-56
2022/03/24 13:32:41;;;;;;;11.18;6.40;;;7.80;61.30;;;;;;1917782;75;21017;-56
2022/03/24 13:35:12;;;;;;;13.13;7.50;;;7.80;61.60;;;;;;1917672;75;21078;-56
2022/03/24 13:37:49;;;;;;;12.63;7.78;;;7.80;61.50;;;;;;1917673;75;21023;-57
2022/03/24 13:40:20;;;;;;;17.20;8.35;;;7.80;61.60;;;;;;1917708;75;21035;-57
2022/03/24 13:42:52;;;;;;;10.70;7.08;;;7.80;61.80;;;;;;1917051;74;21155;-55
2022/03/24 13:45:22;;;;;;;12.82;8.00;;;7.90;61.80;;;;;;1917798;75;21453;-56
2022/03/24 13:47:56;;;;;;;16.35;7.28;;;7.80;61.40;;;;;;1917483;73;21023;-56
2022/03/24 13:50:30;;;;;;;9.43;7.28;;;7.80;61.50;;;;;;1917743;74;21027;-56
2022/03/24 13:53:00;;;;;;;12.65;8.03;;;7.80;61.60;;;;;;1916489;74;21557;-55
2022/03/24 13:55:32;;;;;;;15.58;7.33;;;7.70;61.60;;;;;;1917439;73;21050;-55
2022/03/24 13:58:12;;;;;;;8.98;6.67;;;7.80;61.80;;;;;;1918403;75;21081;-50
2022/03/24 14:00:45;;;;;;;13.93;8.58;;;7.80;61.70;;;;;;1918386;74;21011;-56
2022/03/24 14:03:20;;;;;;;12.90;5.00;;;7.70;61.50;;;;;;1918395;74;21023;-56
2022/03/24 14:06:00;;;;;;;5.97;5.00;;;7.70;61.50;;;;;;1918601;74;21098;-55
2022/03/24 14:08:33;;;;;;;23.18;7.90;;;7.60;61.50;;;;;;1918287;74;21015;-56
2022/03/24 14:11:21;;;;;;;11.70;7.95;;;7.60;61.70;;;;;;1918367;73;21104;-55
2022/03/24 14:13:54;;;;;;;11.83;5.75;;;7.60;62.00;;;;;;1918376;74;21034;-54
2022/03/24 14:16:29;;;;;;;15.38;6.42;;;7.60;62.60;;;;;;1912558;73;21059;-55
2022/03/24 14:19:07;;;;;;;24.85;8.18;;;7.50;62.00;;;;;;1906149;75;21043;-55
2022/03/24 14:21:48;;;;;;;11.35;6.35;;;7.50;61.90;;;;;;1905929;75;21011;-55
2022/03/24 14:24:38;;;;;;;17.15;7.65;;;7.50;61.90;;;;;;1906004;74;21011;-55
2022/03/24 14:27:17;;;;;;;18.32;8.15;;;7.50;61.90;;;;;;1905712;74;21489;-55
2022/03/24 14:29:42;;;;;;;11.95;7.22;;;7.50;62.00;;;;;;1904383;74;21000;-55
2022/03/24 14:32:25;;;;;;;11.80;6.87;;;7.40;61.90;;;;;;1905275;74;21020;-55
2022/03/24 14:35:18;;;;;;;8.95;6.65;;;7.40;62.10;;;;;;1905340;75;21446;-55
2022/03/24 14:37:57;;;;;;;8.65;6.40;;;7.40;62.00;;;;;;1905361;75;20987;-55
2022/03/24 14:40:42;;;;;;;29.50;10.00;;;7.40;62.00;;;;;;1905329;75;21470;-54
2022/03/24 14:43:14;;;;;;;14.53;10.20;;;7.30;62.00;;;;;;1905482;75;21011;-55
2022/03/24 14:45:46;;;;;;;12.18;5.92;;;7.30;62.00;;;;;;1905287;75;21184;-55
2022/03/24 14:48:15;;;;;;;12.45;7.50;;;7.30;62.00;;;;;;1904363;74;21563;-55
2022/03/24 14:50:46;;;;;;;16.67;8.10;;;7.30;62.00;;;;;;1905328;74;21101;-55
2022/03/24 14:53:15;;;;;;;12.10;8.05;;;7.30;62.10;;;;;;1905351;75;21023;-56
2022/03/24 14:55:45;;;;;;;16.97;9.03;;;7.30;62.10;;;;;;1905347;75;21047;-55
2022/03/24 14:58:14;;;;;;;18.57;9.70;;;7.30;62.10;;;;;;1905285;75;21110;-55
2022/03/24 15:00:44;;;;;;;12.93;8.83;;;7.30;62.10;;;;;;1905322;75;21023;-55
2022/03/24 15:03:14;;;;;;;10.88;8.93;;;7.30;62.10;;;;;;1905338;75;21023;-56
2022/03/24 15:05:44;;;;;;;12.07;9.23;;;7.30;62.30;;;;;;1905212;75;21081;-55
2022/03/24 15:08:13;;;;;;;14.75;9.45;;;7.30;62.20;;;;;;1905166;75;21011;-56
2022/03/24 15:10:43;;;;;;;19.45;9.70;;;7.30;62.10;;;;;;1905225;75;21081;-55
2022/03/24 15:13:12;;;;;;;14.70;9.18;;;7.30;62.20;;;;;;1905397;75;21023;-55
2022/03/24 15:18:33;;;;;;;32.88;11.50;;;7.30;62.30;;;;;;1905306;75;21320;-54
2022/03/24 15:21:04;;;;;;;12.90;9.83;;;7.20;62.50;;;;;;1905321;75;21087;-55
2022/03/24 15:23:33;;;;;;;16.77;9.43;;;7.20;62.70;;;;;;1905374;75;21016;-55
2022/03/24 15:26:03;;;;;;;9.58;6.47;;;7.20;62.80;;;;;;1905192;74;21027;-55
2022/03/24 15:28:32;;;;;;;10.45;7.65;;;7.20;63.00;;;;;;1905207;74;21024;-56
2022/03/24 15:31:01;;;;;;;18.90;7.28;;;7.10;62.80;;;;;;1905263;75;21011;-55
2022/03/24 15:33:31;;;;;;;14.87;6.30;;;7.10;63.10;;;;;;1905306;75;21008;-54
2022/03/24 15:36:00;;;;;;;12.45;7.60;;;7.10;63.20;;;;;;1905234;75;21024;-54
2022/03/24 15:38:29;;;;;;;13.32;6.70;;;7.10;63.20;;;;;;1905228;75;21079;-55
2022/03/24 15:40:59;;;;;;;15.98;7.33;;;7.00;63.10;;;;;;1905333;75;21023;-55
2022/03/24 15:43:28;;;;;;;14.60;7.58;;;7.00;63.20;;;;;;1905306;75;21015;-55
2022/03/24 15:45:57;;;;;;;8.83;5.90;;;6.90;63.20;;;;;;1905192;74;21023;-53
2022/03/24 15:48:27;;;;;;;12.25;7.72;;;6.90;63.30;;;;;;1905248;75;21012;-55
2022/03/24 15:50:57;;;;;;;16.37;9.00;;;6.90;63.30;;;;;;1905331;74;21020;-53
2022/03/24 15:53:27;;;;;;;15.78;8.53;;;6.90;63.40;;;;;;1905294;74;21024;-54
2022/03/24 15:55:56;;;;;;;13.65;9.05;;;6.90;63.30;;;;;;1905172;75;21055;-54
2022/03/24 15:58:26;;;;;;;9.25;7.17;;;6.90;63.20;;;;;;1905129;75;21081;-54
2022/03/24 16:00:55;;;;;;;13.72;7.65;;;6.90;63.10;;;;;;1905256;75;21028;-55
2022/03/24 16:03:25;;;;;;;11.15;7.15;;;6.90;63.20;;;;;;1905160;74;21062;-54
2022/03/24 16:05:54;;;;;;;11.15;7.40;;;6.80;63.20;;;;;;1905304;75;21189;-55
2022/03/24 16:08:24;;;;;;;8.63;6.22;;;6.90;63.40;;;;;;1905163;75;21027;-55
2022/03/24 16:10:53;;;;;;;10.30;6.83;;;6.90;63.20;;;;;;1905048;74;21024;-53
2022/03/24 16:13:24;;;;;;;12.70;8.05;;;6.90;63.30;;;;;;1905257;74;21023;-54
2022/03/24 16:15:54;;;;;;;15.43;8.00;;;6.80;63.30;;;;;;1905153;75;21461;-53
2022/03/24 16:18:23;;;;;;;18.02;7.97;;;6.80;63.30;;;;;;1920443;74;21109;-54
2022/03/24 16:20:53;;;;;;;18.07;8.20;;;6.80;63.30;;;;;;1924523;74;21023;-55
2022/03/24 16:23:22;;;;;;;13.48;7.15;;;6.80;63.50;;;;;;1924556;74;21088;-55
2022/03/24 16:25:52;;;;;;;13.18;7.20;;;6.70;63.50;;;;;;1924662;74;21080;-55
2022/03/24 16:28:21;;;;;;;17.17;7.10;;;6.80;63.80;;;;;;1924502;74;21046;-54
2022/03/24 16:30:51;;;;;;;15.75;8.68;;;6.70;63.80;;;;;;1924673;74;21119;-55
2022/03/24 16:33:20;;;;;;;17.62;8.85;;;6.70;63.70;;;;;;1924582;74;21123;-54
2022/03/24 16:35:50;;;;;;;14.63;7.83;;;6.70;64.20;;;;;;1924650;74;21023;-55
2022/03/24 16:38:19;;;;;;;12.30;7.80;;;6.70;64.10;;;;;;1924686;74;21026;-54
2022/03/24 16:40:48;;;;;;;14.25;7.78;;;6.70;64.30;;;;;;1924585;74;21011;-55
2022/03/24 16:43:18;;;;;;;16.75;8.18;;;6.70;64.20;;;;;;1924738;74;21447;-55
2022/03/24 16:45:48;;;;;;;11.05;8.78;;;6.60;64.20;;;;;;1924678;74;20991;-55
2022/03/24 16:48:17;;;;;;;15.98;9.63;;;6.60;64.10;;;;;;1924850;74;20995;-54
2022/03/24 16:50:47;;;;;;;12.58;8.65;;;6.60;64.20;;;;;;1924551;74;21010;-55
2022/03/24 16:53:16;;;;;;;15.55;9.35;;;6.60;64.50;;;;;;1924757;74;20987;-55
2022/03/24 16:55:46;;;;;;;13.88;8.53;;;6.60;64.60;;;;;;1904016;74;21074;-55
2022/03/24 16:58:15;;;;;;;13.88;8.18;;;6.60;64.60;;;;;;1924690;74;20990;-54
2022/03/24 17:00:45;;;;;;;10.00;7.40;;;6.60;64.40;;;;;;1924715;74;21034;-55
2022/03/24 17:03:15;;;;;;;11.57;8.43;;;6.60;64.30;;;;;;1924930;74;21088;-55
2022/03/24 17:05:44;;;;;;;12.33;7.70;;;6.60;64.20;;;;;;1924800;74;21022;-55
2022/03/24 17:08:14;;;;;;;12.85;8.58;;;6.50;64.10;;;;;;1924860;74;21003;-55
2022/03/24 17:10:44;;;;;;;13.08;8.43;;;6.50;64.00;;;;;;1924890;74;21023;-55
2022/03/24 17:13:13;;;;;;;11.25;8.83;;;6.50;64.00;;;;;;1924903;74;21023;-54
2022/03/24 17:15:43;;;;;;;21.12;10.08;;;6.50;63.80;;;;;;1924832;74;21092;-54
2022/03/24 17:18:15;;;;;;;13.03;8.20;;;6.50;64.00;;;;;;1924797;74;21054;-54
2022/03/24 17:20:44;;;;;;;15.10;8.83;;;6.50;63.80;;;;;;1924857;74;20987;-54
2022/03/24 17:23:15;;;;;;;7.35;6.42;;;6.50;63.80;;;;;;1924771;74;21102;-54
2022/03/24 17:25:44;;;;;;;9.25;6.75;;;6.40;63.70;;;;;;1924782;74;21011;-55
2022/03/24 17:28:13;;;;;;;16.50;9.35;;;6.40;63.80;;;;;;1924675;74;21026;-55
2022/03/24 17:30:43;;;;;;;22.55;10.20;;;6.40;63.70;;;;;;1924762;74;21097;-54
2022/03/24 17:33:13;;;;;;;14.93;10.25;;;6.40;63.80;;;;;;1924770;74;21042;-55
2022/03/24 17:35:42;;;;;;;14.15;8.15;;;6.40;63.90;;;;;;1924871;74;21081;-55
2022/03/24 17:38:13;;;;;;;12.07;8.60;;;6.40;63.90;;;;;;1924836;74;21034;-55
2022/03/24 17:40:43;;;;;;;20.45;10.58;;;6.30;63.80;;;;;;1924718;74;21031;-55
2022/03/24 17:43:12;;;;;;;19.35;10.13;;;6.40;64.00;;;;;;1924859;74;21011;-55
2022/03/24 17:45:41;;;;;;;14.15;9.15;;;6.30;64.00;;;;;;1924798;74;21097;-55
2022/03/24 17:48:11;;;;;;;11.05;9.30;;;6.30;64.00;;;;;;1924792;74;21062;-55
2022/03/24 17:50:40;;;;;;;13.53;9.95;;;6.30;64.40;;;;;;1924823;74;21127;-54
2022/03/24 17:53:10;;;;;;;16.02;9.40;;;6.40;64.30;;;;;;1924736;74;21092;-54
2022/03/24 17:55:39;;;;;;;14.33;10.88;;;6.30;64.30;;;;;;1924863;74;20999;-55
2022/03/24 17:58:09;;;;;;;16.48;10.58;;;6.30;64.40;;;;;;1924836;74;21073;-55
2022/03/24 18:00:38;;;;;;;15.30;10.05;;;6.30;64.20;;;;;;1924776;74;21023;-54
2022/03/24 18:03:08;;;;;;;13.32;9.33;;;6.30;64.40;;;;;;1924859;74;21023;-54
2022/03/24 18:05:37;;;;;;;12.73;8.85;;;6.40;64.50;;;;;;1924803;74;21046;-54
2022/03/24 18:08:10;;;;;;;16.07;9.98;;;6.30;64.50;;;;;;1924747;74;21026;-55
2022/03/24 18:10:39;;;;;;;15.05;9.25;;;6.30;64.60;;;;;;1924839;74;20999;-54
2022/03/24 18:13:08;;;;;;;17.55;10.60;;;6.30;64.80;;;;;;1924897;74;21101;-54
2022/03/24 18:15:38;;;;;;;15.03;9.48;;;6.30;64.80;;;;;;1924861;74;21091;-55
2022/03/24 18:18:07;;;;;;;15.58;9.75;;;6.30;64.70;;;;;;1924640;74;21027;-55
2022/03/24 18:20:37;;;;;;;14.87;9.95;;;6.30;65.00;;;;;;1924858;74;21026;-55
2022/03/24 18:23:08;;;;;;;11.65;8.58;;;6.30;65.10;;;;;;1924754;74;21030;-54
2022/03/24 18:25:37;;;;;;;20.77;9.78;;;6.30;65.10;;;;;;1924804;74;21069;-55
2022/03/24 18:28:07;;;;;;;13.40;9.03;;;6.20;65.20;;;;;;1924777;74;21014;-54
2022/03/24 18:30:39;;;;;;;10.53;8.75;;;6.20;65.40;;;;;;1924752;74;21076;-55
2022/03/24 18:33:09;;;;;;;17.70;10.15;;;6.20;65.40;;;;;;1924946;74;21018;-55
2022/03/24 18:35:38;;;;;;;16.60;9.75;;;6.30;65.70;;;;;;1924718;74;21085;-54
2022/03/24 18:38:07;;;;;;;17.57;9.70;;;6.30;65.60;;;;;;1924865;74;21120;-54
2022/03/24 18:40:37;;;;;;;18.45;10.48;;;6.20;65.40;;;;;;1924877;74;21022;-53
2022/03/24 18:43:08;;;;;;;13.65;9.45;;;6.20;65.70;;;;;;1924906;74;21093;-54
2022/03/24 18:45:38;;;;;;;14.45;9.53;;;6.30;66.40;;;;;;1924849;74;21080;-53
2022/03/24 18:48:09;;;;;;;13.83;9.25;;;6.30;65.70;;;;;;1924839;74;21003;-53
2022/03/24 18:50:38;;;;;;;11.38;9.05;;;6.30;65.90;;;;;;1924772;74;21022;-54
2022/03/24 18:53:08;;;;;;;16.82;10.38;;;6.30;66.00;;;;;;1924892;74;21104;-54
2022/03/24 18:55:39;;;;;;;18.45;10.50;;;6.30;65.60;;;;;;1924869;74;21026;-54
2022/03/24 18:58:10;;;;;;;13.75;9.48;;;6.30;65.80;;;;;;1924879;74;21011;-54
2022/03/24 19:00:40;;;;;;;18.77;10.18;;;6.30;66.00;;;;;;1924777;74;21031;-54
2022/03/24 19:03:09;;;;;;;13.72;9.35;;;6.30;65.90;;;;;;1924883;74;21043;-54
2022/03/24 19:05:39;;;;;;;15.95;11.97;;;6.30;65.90;;;;;;1924815;74;21070;-54
2022/03/24 19:08:09;;;;;;;18.67;12.37;;;6.40;66.30;;;;;;1924670;74;21019;-54
2022/03/24 19:10:39;;;;;;;17.12;9.30;;;6.40;66.10;;;;;;1924752;74;21038;-53
2022/03/24 19:13:08;;;;;;;12.47;9.40;;;6.40;66.90;;;;;;1924846;74;20991;-54
2022/03/24 19:15:38;;;;;;;17.95;9.20;;;6.40;66.50;;;;;;1924840;74;21015;-53
2022/03/24 19:18:08;;;;;;;12.30;8.73;;;6.50;66.40;;;;;;1924702;74;21019;-54
2022/03/24 19:20:37;;;;;;;12.13;8.60;;;6.40;66.30;;;;;;1905351;74;21027;-54
2022/03/24 19:23:07;;;;;;;18.45;9.00;;;6.40;66.30;;;;;;1905487;75;21069;-54
2022/03/24 19:25:37;;;;;;;14.38;9.10;;;6.40;66.50;;;;;;1905472;75;21016;-53
2022/03/24 19:28:06;;;;;;;13.50;8.80;;;6.40;66.80;;;;;;1905441;75;20999;-54
2022/03/24 19:30:38;;;;;;;13.05;8.75;;;6.40;67.10;;;;;;1905375;75;21020;-53
2022/03/24 19:33:07;;;;;;;13.45;8.25;;;6.40;67.20;;;;;;1905459;74;21294;-54
2022/03/24 19:35:36;;;;;;;10.43;8.43;;;6.40;67.20;;;;;;1905365;75;20995;-54
2022/03/24 19:38:06;;;;;;;15.23;9.68;;;6.50;67.70;;;;;;1905437;75;21074;-53
2022/03/24 19:40:36;;;;;;;15.13;9.05;;;6.60;67.70;;;;;;1905432;75;20999;-54
2022/03/24 19:43:06;;;;;;;12.43;8.30;;;6.60;67.60;;;;;;1905356;74;21047;-55
2022/03/24 19:45:35;;;;;;;12.20;8.65;;;6.60;67.70;;;;;;1905402;75;21020;-54
2022/03/24 19:48:06;;;;;;;13.43;8.23;;;6.60;67.70;;;;;;1905325;75;21016;-54
2022/03/24 19:50:35;;;;;;;13.30;8.83;;;6.70;68.00;;;;;;1905442;75;21101;-54
2022/03/24 19:53:05;;;;;;;11.53;8.23;;;6.70;68.20;;;;;;1905472;75;21023;-54
2022/03/24 19:55:34;;;;;;;12.93;8.33;;;6.80;69.00;;;;;;1905410;74;21007;-53
2022/03/24 19:58:03;;;;;;;13.03;8.43;;;6.80;68.70;;;;;;1905326;75;21132;-54
2022/03/24 20:00:34;;;;;;;11.45;8.58;;;6.90;68.80;;;;;;1905420;75;21027;-54
2022/03/24 20:03:04;;;;;;;10.13;7.33;;;7.00;69.00;;;;;;1905444;75;21093;-54
2022/03/24 20:05:33;;;;;;;13.80;9.08;;;7.00;69.20;;;;;;1905427;75;21050;-55
2022/03/24 20:08:02;;;;;;;11.93;8.90;;;7.10;69.20;;;;;;1905404;74;21390;-56
2022/03/24 20:10:32;;;;;;;17.45;10.05;;;7.10;68.80;;;;;;1905328;75;21015;-54
2022/03/24 20:13:01;;;;;;;20.72;10.63;;;7.10;68.70;;;;;;1905422;75;21085;-54
2022/03/24 20:15:31;;;;;;;14.80;9.93;;;7.10;68.80;;;;;;1905304;75;21129;-54
2022/03/24 20:18:00;;;;;;;30.43;14.10;;;7.00;69.10;;;;;;1905375;75;21019;-53
2022/03/24 20:20:30;;;;;;;22.13;13.22;;;7.10;69.10;;;;;;1919014;74;21131;-54
2022/03/24 20:22:59;;;;;;;17.02;11.55;;;7.00;68.90;;;;;;1924838;74;21003;-54
2022/03/24 20:25:29;;;;;;;18.17;10.98;;;6.90;68.60;;;;;;1924658;74;21082;-54
2022/03/24 20:27:59;;;;;;;16.60;10.78;;;6.80;68.60;;;;;;1924848;74;21038;-54
2022/03/24 20:30:29;;;;;;;13.45;9.23;;;6.70;68.80;;;;;;1924732;74;21085;-53
2022/03/24 20:32:58;;;;;;;18.02;9.65;;;6.60;68.90;;;;;;1924777;74;20999;-54
2022/03/24 20:35:28;;;;;;;14.35;8.63;;;6.60;69.40;;;;;;1924847;74;21023;-54
2022/03/24 20:38:03;;;;;;;11.43;8.68;;;6.60;69.40;;;;;;1924781;74;21113;-54
2022/03/24 20:40:28;;;;;;;16.93;9.90;;;6.60;69.40;;;;;;1924216;74;20991;-54
2022/03/24 20:42:58;;;;;;;14.00;9.20;;;6.70;69.40;;;;;;1924840;74;21019;-53
2022/03/24 20:45:27;;;;;;;16.87;7.97;;;6.70;69.30;;;;;;1924806;74;21018;-54
2022/03/24 20:47:56;;;;;;;15.50;8.50;;;6.60;69.30;;;;;;1924842;74;21043;-54
2022/03/24 20:50:26;;;;;;;11.65;8.80;;;6.60;69.30;;;;;;1924747;74;21080;-54
2022/03/24 20:52:55;;;;;;;10.63;8.78;;;6.60;69.00;;;;;;1924701;74;21011;-52
2022/03/24 20:55:25;;;;;;;11.48;9.10;;;6.50;69.00;;;;;;1924694;74;21116;-54
2022/03/24 20:57:54;;;;;;;17.95;8.40;;;6.40;69.30;;;;;;1924826;74;21019;-52
2022/03/24 21:00:24;;;;;;;11.83;7.97;;;6.40;69.50;;;;;;1924784;74;21066;-54
2022/03/24 21:02:57;;;;;;;10.98;7.37;;;6.40;69.80;;;;;;1924893;74;20998;-54
2022/03/24 21:05:29;;;;;;;10.35;7.67;;;6.50;70.10;;;;;;1924904;74;21088;-54
2022/03/24 21:07:58;;;;;;;15.30;8.40;;;6.50;69.80;;;;;;1924714;74;20995;-53
2022/03/24 21:10:27;;;;;;;12.63;8.38;;;6.50;69.80;;;;;;1924695;74;21080;-54
2022/03/24 21:12:57;;;;;;;11.75;8.13;;;6.50;69.40;;;;;;1924707;74;21088;-53
2022/03/24 21:15:26;;;;;;;10.15;7.60;;;6.40;69.80;;;;;;1924721;74;21022;-53
2022/03/24 21:17:56;;;;;;;13.60;7.72;;;6.40;69.60;;;;;;1924652;74;21160;-54
2022/03/24 21:20:25;;;;;;;11.85;7.08;;;6.30;69.70;;;;;;1916213;74;21466;-53
2022/03/24 21:22:55;;;;;;;11.25;7.40;;;6.30;69.60;;;;;;1905375;75;21089;-53
2022/03/24 21:25:24;;;;;;;12.13;9.18;;;6.30;70.00;;;;;;1905272;75;21085;-53
2022/03/24 21:27:54;;;;;;;13.18;8.88;;;6.30;70.00;;;;;;1905224;75;21023;-54
2022/03/24 21:30:24;;;;;;;10.15;8.13;;;6.20;70.00;;;;;;1905231;75;21058;-54
2022/03/24 21:32:54;;;;;;;15.30;9.20;;;6.30;70.00;;;;;;1905296;75;21140;-53
2022/03/24 21:35:25;;;;;;;11.25;8.23;;;6.20;70.20;;;;;;1905391;74;20991;-54
2022/03/24 21:37:54;;;;;;;11.65;8.15;;;6.20;70.60;;;;;;1905486;74;20991;-52
2022/03/24 21:40:24;;;;;;;11.50;8.88;;;6.20;70.10;;;;;;1905511;75;21129;-53
2022/03/24 21:42:53;;;;;;;11.73;7.62;;;6.20;70.00;;;;;;1905633;75;21066;-54
2022/03/24 21:45:23;;;;;;;13.40;8.73;;;6.20;70.20;;;;;;1905611;75;21058;-53
2022/03/24 21:47:52;;;;;;;10.68;7.37;;;6.20;70.30;;;;;;1905484;75;21019;-53
2022/03/24 21:50:22;;;;;;;13.08;7.33;;;6.20;70.40;;;;;;1905509;75;21035;-53
2022/03/24 21:52:51;;;;;;;13.05;8.95;;;6.30;70.40;;;;;;1905467;75;21501;-53
2022/03/24 21:55:20;;;;;;;12.20;8.75;;;6.30;70.50;;;;;;1905601;75;21012;-52
2022/03/24 21:57:49;;;;;;;10.65;7.25;;;6.40;70.60;;;;;;1905565;75;21019;-53
2022/03/24 22:00:19;;;;;;;10.13;7.58;;;6.40;70.50;;;;;;1905462;75;21019;-53
2022/03/24 22:02:48;;;;;;;12.85;8.15;;;6.50;70.50;;;;;;1905502;75;21044;-53
2022/03/24 22:05:18;;;;;;;12.33;7.85;;;6.50;70.50;;;;;;1905482;75;21019;-52
2022/03/24 22:07:47;;;;;;;9.85;7.35;;;6.60;70.80;;;;;;1905457;75;21083;-54
2022/03/24 22:10:18;;;;;;;12.75;7.67;;;6.60;71.00;;;;;;1905497;74;21071;-53
2022/03/24 22:12:48;;;;;;;12.90;7.45;;;6.60;70.50;;;;;;1905514;75;21023;-52
2022/03/24 22:15:17;;;;;;;14.55;8.73;;;6.70;70.70;;;;;;1905489;75;21091;-52
2022/03/24 22:17:47;;;;;;;13.62;8.38;;;6.70;70.80;;;;;;1905554;75;21114;-52
2022/03/24 22:20:17;;;;;;;17.27;7.78;;;6.70;70.20;;;;;;1905391;74;21073;-53
2022/03/24 22:22:49;;;;;;;14.23;7.85;;;6.60;70.60;;;;;;1905611;75;21019;-53
2022/03/24 22:25:17;;;;;;;13.03;8.18;;;6.60;70.60;;;;;;1905487;75;21016;-52
2022/03/24 22:27:47;;;;;;;12.03;7.50;;;6.50;70.60;;;;;;1905598;75;21024;-53
2022/03/24 22:30:16;;;;;;;14.23;8.23;;;6.50;70.90;;;;;;1905574;75;21020;-52
2022/03/24 22:32:45;;;;;;;19.27;9.23;;;6.50;71.60;;;;;;1905520;75;21023;-53
2022/03/24 22:35:15;;;;;;;17.35;9.15;;;6.50;71.40;;;;;;1905499;75;21039;-52
2022/03/24 22:37:45;;;;;;;16.32;8.85;;;6.50;71.00;;;;;;1905497;74;21019;-52
2022/03/24 22:40:14;;;;;;;12.23;8.48;;;6.50;71.30;;;;;;1905453;75;21039;-52
2022/03/24 22:42:44;;;;;;;14.95;8.98;;;6.60;71.30;;;;;;1905421;74;21058;-53
2022/03/24 22:45:13;;;;;;;13.93;8.60;;;6.60;71.30;;;;;;1905397;75;21043;-53
2022/03/24 22:47:43;;;;;;;11.57;7.90;;;6.60;71.50;;;;;;1905354;75;21077;-54
2022/03/24 22:50:13;;;;;;;12.75;8.13;;;6.60;71.50;;;;;;1905379;75;21070;-53
2022/03/24 22:52:43;;;;;;;13.65;8.60;;;6.70;71.50;;;;;;1905514;75;21085;-53
2022/03/24 22:55:12;;;;;;;16.93;9.50;;;6.70;71.60;;;;;;1905479;75;21136;-52
2022/03/24 22:57:42;;;;;;;14.23;8.18;;;6.70;72.00;;;;;;1905510;75;21150;-53
2022/03/24 23:00:24;;;;;;;13.93;8.38;;;6.80;71.80;;;;;;1905454;75;21020;-52
2022/03/24 23:02:53;;;;;;;15.83;8.10;;;6.80;71.60;;;;;;1904853;75;21164;-52
2022/03/24 23:05:23;;;;;;;10.93;7.92;;;6.80;71.30;;;;;;1905507;74;21019;-52
2022/03/24 23:07:52;;;;;;;10.88;8.43;;;6.70;71.40;;;;;;1905424;75;21032;-53
2022/03/24 23:10:22;;;;;;;14.60;7.65;;;6.70;71.80;;;;;;1905353;75;21089;-53
2022/03/24 23:12:51;;;;;;;11.93;8.85;;;6.80;72.00;;;;;;1905388;74;21019;-53
2022/03/24 23:15:21;;;;;;;14.85;8.20;;;6.80;72.00;;;;;;1905487;75;21023;-53
2022/03/24 23:17:50;;;;;;;11.88;8.35;;;6.80;71.90;;;;;;1905471;75;21014;-53
2022/03/24 23:20:19;;;;;;;15.63;8.33;;;6.80;72.10;;;;;;1905444;75;21113;-54
2022/03/24 23:22:49;;;;;;;16.35;8.13;;;6.80;72.00;;;;;;1905346;74;21048;-52
2022/03/24 23:25:19;;;;;;;13.10;8.40;;;6.80;72.20;;;;;;1905443;74;21077;-51
2022/03/24 23:27:48;;;;;;;13.62;8.68;;;6.80;72.50;;;;;;1905462;74;21073;-52
2022/03/24 23:30:19;;;;;;;13.05;8.15;;;6.90;72.50;;;;;;1905477;75;21085;-52
2022/03/24 23:32:48;;;;;;;18.37;14.68;;;6.90;72.40;;;;;;1905360;75;21024;-53
2022/03/24 23:35:17;;;;;;;12.78;8.10;;;6.90;72.50;;;;;;1905318;75;21157;-52
2022/03/24 23:37:47;;;;;;;16.40;8.75;;;6.90;72.70;;;;;;1905481;75;21035;-52
2022/03/24 23:40:16;;;;;;;13.48;9.20;;;6.90;72.60;;;;;;1905423;75;21024;-52
2022/03/24 23:42:46;;;;;;;14.85;8.90;;;6.90;72.70;;;;;;1905361;75;21023;-52
2022/03/24 23:45:16;;;;;;;17.65;10.38;;;6.80;72.30;;;;;;1905450;75;21112;-53
2022/03/24 23:47:45;;;;;;;14.00;9.40;;;6.80;72.60;;;;;;1905415;74;21018;-53
2022/03/24 23:50:15;;;;;;;14.98;9.58;;;6.70;72.60;;;;;;1905335;75;21024;-53
2022/03/24 23:52:44;;;;;;;17.42;10.28;;;6.70;72.90;;;;;;1905465;75;21063;-53
2022/03/24 23:55:14;;;;;;;14.68;9.85;;;6.60;72.70;;;;;;1905378;75;21067;-53
2022/03/24 23:57:43;;;;;;;10.50;8.03;;;6.60;73.00;;;;;;1905386;75;21065;-53
